Time;durP1;ratioP1;P1;durP2;ratioP2;P2;SDS_P1;SDS_P2;PMS_P1;PMS_P2;Temp;Humidity;BMP_temperature;BMP_pressure;BME280_temperature;BME280_humidity;BME280_pressure;Samples;Min_cycle;Max_cycle;Signal;HPM_P1;HPM_P2
2022/09/05 00:02:19;;;;;;;;;0.33;0.00;;;;;;;;5105341;27;61688;-74
2022/09/05 00:04:55;;;;;;;;;1.00;1.00;;;;;;;;5103720;27;62131;-74
2022/09/05 00:07:27;;;;;;;;;0.67;0.00;;;;;;;;5104293;27;63010;-75
2022/09/05 00:10:19;;;;;;;;;0.00;0.00;;;;;;;;5103078;27;61784;-75
2022/09/05 00:12:45;;;;;;;;;0.67;0.67;;;;;;;;5104963;27;61768;-74
2022/09/05 00:15:27;;;;;;;;;3.67;1.00;;;;;;;;5103934;27;61811;-74
2022/09/05 00:18:11;;;;;;;;;0.67;0.67;;;;;;;;5104102;27;62884;-74
2022/09/05 00:20:45;;;;;;;;;1.00;1.00;;;;;;;;5104846;27;61899;-75
2022/09/05 00:23:20;;;;;;;;;0.33;0.33;;;;;;;;5103140;27;61833;-74
2022/09/05 00:26:04;;;;;;;;;2.33;0.67;;;;;;;;5103078;27;61879;-74
2022/09/05 00:28:48;;;;;;;;;0.33;0.33;;;;;;;;5104377;27;61855;-74
2022/09/05 00:31:22;;;;;;;;;0.00;0.00;;;;;;;;5104931;27;61806;-74
2022/09/05 00:34:06;;;;;;;;;1.00;1.00;;;;;;;;5104810;27;62086;-74
2022/09/05 00:36:31;;;;;;;;;0.33;0.33;;;;;;;;5102523;27;62092;-75
2022/09/05 00:38:59;;;;;;;;;2.33;1.00;;;;;;;;5103884;27;62753;-74
2022/09/05 00:41:25;;;;;;;;;1.00;1.00;;;;;;;;5103162;27;62290;-73
2022/09/05 00:43:51;;;;;;;;;0.33;0.33;;;;;;;;5103314;27;61852;-74
2022/09/05 00:46:25;;;;;;;;;1.00;1.00;;;;;;;;5103303;27;61962;-74
2022/09/05 00:48:56;;;;;;;;;2.00;1.00;;;;;;;;5102445;27;64765;-74
2022/09/05 00:51:34;;;;;;;;;1.00;1.00;;;;;;;;5103981;27;62050;-74
2022/09/05 00:54:11;;;;;;;;;0.00;0.00;;;;;;;;5102676;27;62099;-74
2022/09/05 00:56:43;;;;;;;;;2.00;1.00;;;;;;;;5102721;27;61805;-74
2022/09/05 00:59:23;;;;;;;;;0.33;0.33;;;;;;;;5103692;27;61948;-74
2022/09/05 01:02:01;;;;;;;;;0.67;0.67;;;;;;;;5104255;27;61861;-74
2022/09/05 01:04:33;;;;;;;;;0.67;0.00;;;;;;;;5104599;27;61951;-75
2022/09/05 01:07:08;;;;;;;;;3.00;1.33;;;;;;;;5102545;27;61810;-74
2022/09/05 01:09:33;;;;;;;;;0.33;0.33;;;;;;;;5102044;27;65032;-74
2022/09/05 01:12:09;;;;;;;;;0.33;0.33;;;;;;;;5103974;27;61847;-74
2022/09/05 01:14:53;;;;;;;;;2.33;1.00;;;;;;;;5104332;27;62170;-74
2022/09/05 01:17:29;;;;;;;;;0.00;0.00;;;;;;;;5102677;27;61852;-74
2022/09/05 01:19:57;;;;;;;;;0.00;0.00;;;;;;;;5101745;27;63085;-74
2022/09/05 01:22:41;;;;;;;;;1.00;0.67;;;;;;;;5104034;27;61875;-74
2022/09/05 01:25:12;;;;;;;;;1.33;0.67;;;;;;;;5101604;27;62231;-74
2022/09/05 01:27:53;;;;;;;;;1.33;1.33;;;;;;;;5103616;27;62139;-74
2022/09/05 01:30:22;;;;;;;;;4.00;1.00;;;;;;;;5103215;27;62018;-74
2022/09/05 01:32:51;;;;;;;;;1.00;1.00;;;;;;;;5102232;27;62266;-74
2022/09/05 01:35:26;;;;;;;;;1.00;0.67;;;;;;;;5101913;27;61724;-75
2022/09/05 01:37:51;;;;;;;;;1.33;0.67;;;;;;;;5102120;27;62349;-74
2022/09/05 01:40:20;;;;;;;;;1.00;1.00;;;;;;;;5102642;27;62929;-75
2022/09/05 01:42:51;;;;;;;;;0.67;0.67;;;;;;;;5102458;27;61954;-75
2022/09/05 01:45:19;;;;;;;;;1.67;1.00;;;;;;;;5103531;27;61756;-75
2022/09/05 01:47:45;;;;;;;;;1.00;1.00;;;;;;;;5102686;27;61769;-75
2022/09/05 01:50:36;;;;;;;;;2.00;0.67;;;;;;;;5102511;27;62053;-75
2022/09/05 01:53:01;;;;;;;;;1.00;1.00;;;;;;;;5063123;28;62353;-75
2022/09/05 01:55:27;;;;;;;;;1.00;1.00;;;;;;;;5063335;28;61754;-75
2022/09/05 01:57:55;;;;;;;;;1.00;1.00;;;;;;;;5063695;28;62105;-75
2022/09/05 02:00:27;;;;;;;;;1.00;1.00;;;;;;;;5062920;28;64248;-75
2022/09/05 02:02:56;;;;;;;;;1.00;1.00;;;;;;;;5080271;28;61953;-75
2022/09/05 02:05:30;;;;;;;;;3.33;2.00;;;;;;;;5063188;28;62117;-75
2022/09/05 02:07:58;;;;;;;;;1.00;1.00;;;;;;;;5080658;28;61913;-75
2022/09/05 02:10:26;;;;;;;;;1.67;1.67;;;;;;;;5062394;28;64879;-75
2022/09/05 02:12:52;;;;;;;;;0.33;0.33;;;;;;;;5063348;28;61940;-75
2022/09/05 02:15:20;;;;;;;;;1.00;1.00;;;;;;;;5080028;28;61984;-75
2022/09/05 02:17:50;;;;;;;;;1.00;1.00;;;;;;;;5063366;28;61909;-76
2022/09/05 02:20:18;;;;;;;;;1.33;1.33;;;;;;;;5079495;28;62037;-75
2022/09/05 02:22:45;;;;;;;;;1.67;1.00;;;;;;;;5062999;28;61982;-75
2022/09/05 02:25:15;;;;;;;;;1.00;1.00;;;;;;;;5062434;28;61857;-75
2022/09/05 02:27:44;;;;;;;;;3.00;1.00;;;;;;;;5063097;28;61938;-75
2022/09/05 02:30:17;;;;;;;;;0.67;0.00;;;;;;;;5093790;27;61758;-74
2022/09/05 02:32:42;;;;;;;;;4.00;2.33;;;;;;;;5101332;27;61785;-75
2022/09/05 02:35:20;;;;;;;;;2.00;2.00;;;;;;;;5102914;27;62088;-75
2022/09/05 02:37:45;;;;;;;;;1.00;1.00;;;;;;;;5101272;27;61967;-75
2022/09/05 02:40:36;;;;;;;;;1.67;1.67;;;;;;;;5101917;27;61736;-75
2022/09/05 02:43:20;;;;;;;;;4.00;2.33;;;;;;;;5103200;27;61889;-75
2022/09/05 02:46:04;;;;;;;;;2.67;0.67;;;;;;;;5101679;27;62102;-75
2022/09/05 02:48:30;;;;;;;;;3.00;2.00;;;;;;;;5102779;27;61750;-75
2022/09/05 02:51:03;;;;;;;;;1.33;1.33;;;;;;;;5102198;27;61938;-74
2022/09/05 02:53:29;;;;;;;;;1.00;1.00;;;;;;;;5102436;27;61892;-75
2022/09/05 02:55:54;;;;;;;;;1.33;1.00;;;;;;;;5101270;27;61778;-74
2022/09/05 02:58:19;;;;;;;;;1.67;1.67;;;;;;;;5102579;27;62264;-75
2022/09/05 03:00:53;;;;;;;;;3.00;1.33;;;;;;;;5103635;27;63736;-75
2022/09/05 03:03:21;;;;;;;;;2.00;2.00;;;;;;;;5105878;27;61987;-75
2022/09/05 03:05:54;;;;;;;;;5.00;1.00;;;;;;;;5104928;27;61825;-75
2022/09/05 03:08:32;;;;;;;;;2.00;2.00;;;;;;;;5104756;27;61968;-75
2022/09/05 03:11:14;;;;;;;;;0.67;0.67;;;;;;;;5105381;27;62152;-75
2022/09/05 03:13:58;;;;;;;;;1.67;0.67;;;;;;;;5105871;27;61774;-75
2022/09/05 03:16:24;;;;;;;;;1.00;1.00;;;;;;;;5105539;27;62065;-75
2022/09/05 03:18:49;;;;;;;;;1.00;1.00;;;;;;;;5106208;27;61890;-75
2022/09/05 03:21:33;;;;;;;;;4.00;2.67;;;;;;;;5105537;27;61814;-75
2022/09/05 03:23:58;;;;;;;;;4.67;2.33;;;;;;;;5105804;27;61773;-75
2022/09/05 03:26:42;;;;;;;;;3.67;1.33;;;;;;;;5104144;27;62004;-75
2022/09/05 03:29:24;;;;;;;;;1.00;1.00;;;;;;;;5105012;27;61868;-75
2022/09/05 03:31:55;;;;;;;;;2.67;0.67;;;;;;;;5103797;27;63760;-75
2022/09/05 03:34:39;;;;;;;;;0.67;0.67;;;;;;;;5104609;27;62297;-75
2022/09/05 03:37:17;;;;;;;;;2.00;2.00;;;;;;;;5104297;27;61920;-75
2022/09/05 03:40:00;;;;;;;;;2.00;1.67;;;;;;;;5085161;28;61702;-75
2022/09/05 03:42:34;;;;;;;;;1.00;1.00;;;;;;;;5084729;28;61785;-75
2022/09/05 03:45:17;;;;;;;;;2.00;1.00;;;;;;;;5083632;28;61789;-75
2022/09/05 03:48:06;;;;;;;;;1.00;1.00;;;;;;;;5084814;27;61652;-75
2022/09/05 03:50:31;;;;;;;;;1.00;1.00;;;;;;;;5082052;27;61932;-75
2022/09/05 03:52:56;;;;;;;;;1.00;1.00;;;;;;;;5083965;27;61883;-76
2022/09/05 03:55:32;;;;;;;;;1.67;1.00;;;;;;;;5084825;28;62035;-75
2022/09/05 03:58:04;;;;;;;;;2.00;2.00;;;;;;;;5085057;27;61710;-75
2022/09/05 04:00:35;;;;;;;;;0.67;0.67;;;;;;;;5085009;27;61852;-75
2022/09/05 04:03:09;;;;;;;;;1.00;1.00;;;;;;;;5083007;28;64100;-75
2022/09/05 04:05:37;;;;;;;;;1.00;1.00;;;;;;;;5083090;28;62230;-75
2022/09/05 04:08:12;;;;;;;;;1.00;1.00;;;;;;;;5084733;27;61851;-75
2022/09/05 04:10:56;;;;;;;;;2.67;2.00;;;;;;;;5082296;28;62189;-75
2022/09/05 04:13:21;;;;;;;;;2.00;2.00;;;;;;;;5084133;27;62746;-75
2022/09/05 04:15:50;;;;;;;;;1.67;1.00;;;;;;;;5084080;27;61846;-75
2022/09/05 04:18:18;;;;;;;;;2.00;2.00;;;;;;;;5083276;28;61820;-75
2022/09/05 04:20:48;;;;;;;;;4.33;1.33;;;;;;;;5084674;27;62230;-75
2022/09/05 04:23:16;;;;;;;;;1.67;1.67;;;;;;;;5082303;28;64872;-76
2022/09/05 04:25:54;;;;;;;;;1.00;1.00;;;;;;;;5082704;28;62173;-75
2022/09/05 04:28:38;;;;;;;;;1.00;1.00;;;;;;;;5082972;28;61837;-75
2022/09/05 04:31:27;;;;;;;;;4.33;3.00;;;;;;;;5083327;28;61808;-75
2022/09/05 04:33:55;;;;;;;;;3.00;2.00;;;;;;;;5081996;28;63873;-75
2022/09/05 04:36:25;;;;;;;;;3.67;2.33;;;;;;;;5082697;28;61967;-75
2022/09/05 04:39:05;;;;;;;;;3.00;2.00;;;;;;;;5097244;27;61884;-75
2022/09/05 04:41:32;;;;;;;;;1.33;1.33;;;;;;;;5104655;27;61777;-75
2022/09/05 04:44:02;;;;;;;;;2.00;2.00;;;;;;;;5103553;27;61930;-75
2022/09/05 04:46:39;;;;;;;;;1.67;1.67;;;;;;;;5104471;27;61855;-75
2022/09/05 04:49:07;;;;;;;;;3.00;1.67;;;;;;;;5104749;27;61699;-75
2022/09/05 04:51:38;;;;;;;;;0.33;0.33;;;;;;;;5104418;27;61878;-75
2022/09/05 04:54:19;;;;;;;;;1.33;1.33;;;;;;;;5102286;27;63568;-76
2022/09/05 04:56:48;;;;;;;;;3.00;1.67;;;;;;;;5103823;27;61885;-75
2022/09/05 04:59:25;;;;;;;;;5.33;3.00;;;;;;;;5102885;27;61933;-75
2022/09/05 05:02:04;;;;;;;;;1.67;1.67;;;;;;;;5102803;27;62060;-76
2022/09/05 05:04:30;;;;;;;;;1.75;1.75;;;;;;;;5103894;27;61955;-75
2022/09/05 05:06:55;;;;;;;;;2.67;2.00;;;;;;;;5102421;27;61939;-75
2022/09/05 05:09:25;;;;;;;;;3.33;3.33;;;;;;;;5104816;27;61917;-76
2022/09/05 05:12:23;;;;;;;;;1.67;1.67;;;;;;;;5103763;27;62066;-76
2022/09/05 05:14:56;;;;;;;;;3.33;0.67;;;;;;;;5067797;27;64004;-75
2022/09/05 05:17:28;;;;;;;;;2.00;2.00;;;;;;;;5102669;27;61885;-76
2022/09/05 05:20:04;;;;;;;;;2.00;2.00;;;;;;;;5104304;27;62095;-75
2022/09/05 05:22:29;;;;;;;;;4.50;3.00;;;;;;;;5102618;27;61952;-75
2022/09/05 05:24:56;;;;;;;;;3.00;2.00;;;;;;;;5101790;27;61884;-77
2022/09/05 05:27:24;;;;;;;;;1.67;1.67;;;;;;;;5102200;27;61876;-76
2022/09/05 05:30:03;;;;;;;;;1.50;1.50;;;;;;;;5102785;27;62075;-76
2022/09/05 05:32:46;;;;;;;;;3.00;3.00;;;;;;;;5103152;27;61902;-76
2022/09/05 05:35:11;;;;;;;;;2.00;2.00;;;;;;;;5098515;27;62056;-75
2022/09/05 05:37:43;;;;;;;;;3.00;2.00;;;;;;;;5096685;27;61777;-74
2022/09/05 05:40:14;;;;;;;;;4.00;2.67;;;;;;;;5099644;27;62160;-73
2022/09/05 05:42:40;;;;;;;;;4.00;3.00;;;;;;;;5100066;27;61970;-75
2022/09/05 05:45:14;;;;;;;;;2.00;2.00;;;;;;;;5091828;27;63813;-77
2022/09/05 05:47:44;;;;;;;;;2.67;1.00;;;;;;;;5102588;27;61782;-72
2022/09/05 05:50:12;;;;;;;;;3.75;3.00;;;;;;;;5099700;27;62140;-72
2022/09/05 05:52:40;;;;;;;;;4.25;2.50;;;;;;;;5101827;27;61925;-73
2022/09/05 05:55:06;;;;;;;;;3.50;3.50;;;;;;;;5099887;27;65256;-73
2022/09/05 05:58:03;;;;;;;;;5.67;4.00;;;;;;;;5099737;27;61930;-73
2022/09/05 06:00:47;;;;;;;;;2.33;2.33;;;;;;;;5081779;27;62025;-74
2022/09/05 06:03:52;;;;;;;;;4.00;3.00;;;;;;;;5098660;27;62171;-73
2022/09/05 06:06:26;;;;;;;;;2.50;2.50;;;;;;;;5039889;28;64373;-74
2022/09/05 06:09:12;;;;;;;;;4.00;4.00;;;;;;;;5057137;28;61916;-73
2022/09/05 06:11:37;;;;;;;;;3.33;3.33;;;;;;;;5059082;28;62008;-73
2022/09/05 06:14:15;;;;;;;;;4.00;3.00;;;;;;;;5043010;28;62034;-73
2022/09/05 06:16:59;;;;;;;;;4.00;3.00;;;;;;;;5042159;28;63701;-73
2022/09/05 06:19:24;;;;;;;;;8.00;3.33;;;;;;;;5058731;28;62109;-73
2022/09/05 06:22:09;;;;;;;;;6.50;5.50;;;;;;;;5059456;28;62200;-73
2022/09/05 06:24:56;;;;;;;;;3.33;3.33;;;;;;;;5056659;28;61843;-73
2022/09/05 06:27:30;;;;;;;;;5.50;4.25;;;;;;;;5041892;28;63536;-73
2022/09/05 06:30:07;;;;;;;;;3.67;3.67;;;;;;;;5042906;28;61721;-73
2022/09/05 06:32:56;;;;;;;;;5.50;4.50;;;;;;;;5059963;28;62353;-73
2022/09/05 06:35:28;;;;;;;;;4.00;4.00;;;;;;;;5062114;28;61979;-72
2022/09/05 06:38:10;;;;;;;;;5.00;5.00;;;;;;;;5089951;27;64020;-72
2022/09/05 06:40:54;;;;;;;;;4.00;4.00;;;;;;;;5105899;27;61752;-75
2022/09/05 06:43:35;;;;;;;;;5.00;3.25;;;;;;;;5106357;27;61727;-74
2022/09/05 06:46:06;;;;;;;;;6.75;6.00;;;;;;;;5104609;27;61775;-76
2022/09/05 06:48:31;;;;;;;;;7.50;5.75;;;;;;;;5105288;27;62010;-76
2022/09/05 06:51:12;;;;;;;;;6.75;5.25;;;;;;;;5105586;27;61674;-75
2022/09/05 06:53:37;;;;;;;;;5.67;4.67;;;;;;;;5096796;27;62277;-74
2022/09/05 06:56:18;;;;;;;;;6.00;6.00;;;;;;;;5085634;27;61785;-75
2022/09/05 06:58:46;;;;;;;;;8.67;5.67;;;;;;;;5099688;27;64012;-75
2022/09/05 07:01:13;;;;;;;;;6.33;3.67;;;;;;;;5106086;27;61741;-74
2022/09/05 07:03:49;;;;;;;;;5.33;5.00;;;;;;;;5105927;27;61943;-74
2022/09/05 07:06:27;;;;;;;;;5.00;4.67;;;;;;;;5106163;27;62010;-75
2022/09/05 07:09:01;;;;;;;;;5.00;3.33;;;;;;;;5105045;27;62067;-75
2022/09/05 07:11:29;;;;;;;;;5.00;3.00;;;;;;;;5104017;27;62106;-75
2022/09/05 07:14:04;;;;;;;;;6.00;2.33;;;;;;;;5104613;27;62023;-74
2022/09/05 07:16:40;;;;;;;;;2.67;2.67;;;;;;;;5105867;27;61939;-74
2022/09/05 07:19:09;;;;;;;;;3.00;3.00;;;;;;;;5105463;27;62085;-75
2022/09/05 07:21:46;;;;;;;;;3.00;3.00;;;;;;;;5105502;27;61988;-74
2022/09/05 07:24:16;;;;;;;;;4.00;3.00;;;;;;;;5103966;27;61732;-74
2022/09/05 07:26:44;;;;;;;;;6.00;3.00;;;;;;;;5103884;27;61770;-74
2022/09/05 07:29:13;;;;;;;;;4.67;2.00;;;;;;;;5103685;27;63914;-75
2022/09/05 07:31:39;;;;;;;;;4.00;3.00;;;;;;;;5105328;27;61791;-75
2022/09/05 07:34:11;;;;;;;;;5.67;4.00;;;;;;;;5104541;27;61792;-74
2022/09/05 07:36:38;;;;;;;;;3.33;1.33;;;;;;;;5103296;27;61877;-74
2022/09/05 07:39:04;;;;;;;;;3.00;3.00;;;;;;;;5122076;27;62106;-74
2022/09/05 07:41:31;;;;;;;;;8.00;3.33;;;;;;;;5105016;27;61933;-75
2022/09/05 07:44:01;;;;;;;;;2.67;2.67;;;;;;;;5104233;27;61840;-74
2022/09/05 07:46:30;;;;;;;;;2.33;2.33;;;;;;;;5105482;27;62068;-74
2022/09/05 07:48:59;;;;;;;;;3.00;3.00;;;;;;;;5103285;27;63926;-74
2022/09/05 07:51:26;;;;;;;;;2.00;2.00;;;;;;;;5104479;27;62303;-74
2022/09/05 07:54:03;;;;;;;;;3.67;3.67;;;;;;;;5105152;27;61671;-74
2022/09/05 07:56:40;;;;;;;;;4.33;4.33;;;;;;;;5105421;27;61789;-75
2022/09/05 07:59:08;;;;;;;;;2.67;2.00;;;;;;;;5104547;27;61781;-74
2022/09/05 08:01:36;;;;;;;;;5.67;4.67;;;;;;;;5103456;27;61771;-75
2022/09/05 08:04:02;;;;;;;;;3.00;2.33;;;;;;;;5105000;27;61849;-75
2022/09/05 08:06:27;;;;;;;;;3.00;2.00;;;;;;;;5103862;27;61959;-74
2022/09/05 08:08:52;;;;;;;;;3.67;2.00;;;;;;;;5104037;27;62161;-75
2022/09/05 08:11:19;;;;;;;;;2.67;1.67;;;;;;;;5104833;27;61713;-74
2022/09/05 08:13:56;;;;;;;;;2.00;2.00;;;;;;;;5104885;27;61920;-74
2022/09/05 08:16:23;;;;;;;;;5.00;2.00;;;;;;;;5105181;27;61833;-74
2022/09/05 08:18:55;;;;;;;;;2.00;2.00;;;;;;;;5102444;27;63638;-75
2022/09/05 08:21:22;;;;;;;;;1.33;1.33;;;;;;;;5103277;27;61779;-75
2022/09/05 08:23:55;;;;;;;;;1.00;1.00;;;;;;;;5104432;27;62982;-75
2022/09/05 08:26:39;;;;;;;;;2.00;2.00;;;;;;;;5103429;27;61803;-75
2022/09/05 08:29:14;;;;;;;;;2.67;0.67;;;;;;;;5102800;27;63765;-75
2022/09/05 08:31:45;;;;;;;;;2.67;2.33;;;;;;;;5104505;27;61750;-74
2022/09/05 08:34:17;;;;;;;;;2.00;2.00;;;;;;;;5104893;27;61920;-75
2022/09/05 08:36:47;;;;;;;;;3.00;3.00;;;;;;;;5100885;27;61789;-74
2022/09/05 08:39:20;;;;;;;;;3.33;3.00;;;;;;;;5089857;27;62000;-75
2022/09/05 08:41:48;;;;;;;;;3.00;1.33;;;;;;;;5104242;27;62255;-75
2022/09/05 08:44:17;;;;;;;;;3.00;3.00;;;;;;;;5104600;27;62139;-75
2022/09/05 08:46:50;;;;;;;;;2.33;2.33;;;;;;;;5104478;27;62053;-75
2022/09/05 08:49:32;;;;;;;;;4.00;2.67;;;;;;;;5103706;27;61874;-74
2022/09/05 08:52:02;;;;;;;;;3.33;3.33;;;;;;;;5104034;27;61888;-74
2022/09/05 08:54:40;;;;;;;;;1.67;1.67;;;;;;;;5103002;27;61991;-74
2022/09/05 08:57:05;;;;;;;;;2.33;2.33;;;;;;;;5102154;27;61863;-75
2022/09/05 08:59:42;;;;;;;;;3.67;3.67;;;;;;;;5102239;27;64625;-74
2022/09/05 09:02:14;;;;;;;;;3.33;2.33;;;;;;;;5104127;27;62133;-74
2022/09/05 09:04:45;;;;;;;;;7.00;4.00;;;;;;;;5104129;27;61874;-75
2022/09/05 09:07:13;;;;;;;;;3.00;3.00;;;;;;;;5102826;27;62205;-75
2022/09/05 09:09:57;;;;;;;;;2.67;2.67;;;;;;;;5103623;27;62828;-75
2022/09/05 09:12:41;;;;;;;;;3.33;2.67;;;;;;;;5102573;27;61796;-75
2022/09/05 09:15:23;;;;;;;;;2.00;2.00;;;;;;;;5104044;27;61887;-75
2022/09/05 09:17:50;;;;;;;;;3.00;2.00;;;;;;;;5102573;27;61850;-75
2022/09/05 09:20:27;;;;;;;;;3.00;3.00;;;;;;;;5102001;27;65094;-74
2022/09/05 09:22:56;;;;;;;;;2.00;1.33;;;;;;;;5103368;27;61742;-75
2022/09/05 09:25:21;;;;;;;;;3.33;2.67;;;;;;;;5103387;27;61860;-75
2022/09/05 09:28:03;;;;;;;;;3.00;3.00;;;;;;;;5103745;27;61734;-75
2022/09/05 09:30:29;;;;;;;;;2.67;1.00;;;;;;;;5102027;27;64147;-75
2022/09/05 09:33:00;;;;;;;;;1.00;1.00;;;;;;;;5101874;27;61875;-74
2022/09/05 09:35:34;;;;;;;;;1.67;1.67;;;;;;;;5102324;27;61954;-74
2022/09/05 09:38:05;;;;;;;;;2.67;1.67;;;;;;;;5101782;27;62086;-74
2022/09/05 09:40:31;;;;;;;;;6.00;1.67;;;;;;;;5102978;27;62145;-75
2022/09/05 09:43:09;;;;;;;;;2.67;2.67;;;;;;;;5101995;27;61887;-75
2022/09/05 09:45:54;;;;;;;;;0.67;0.67;;;;;;;;5102492;27;61874;-75
2022/09/05 09:48:20;;;;;;;;;2.67;2.67;;;;;;;;5103020;27;61713;-75
2022/09/05 09:50:51;;;;;;;;;0.67;0.67;;;;;;;;5101355;27;64575;-75
2022/09/05 09:53:39;;;;;;;;;0.67;0.67;;;;;;;;5102952;27;61940;-75
2022/09/05 09:56:19;;;;;;;;;1.00;1.00;;;;;;;;5062723;28;61906;-75
2022/09/05 09:58:45;;;;;;;;;2.00;2.00;;;;;;;;5080209;28;62013;-75
2022/09/05 10:01:13;;;;;;;;;2.33;2.00;;;;;;;;5079706;28;62537;-75
2022/09/05 10:03:51;;;;;;;;;1.33;1.33;;;;;;;;5080173;28;61806;-75
2022/09/05 10:06:37;;;;;;;;;1.67;1.67;;;;;;;;5079961;28;61938;-75
2022/09/05 10:09:02;;;;;;;;;1.00;1.00;;;;;;;;5062132;28;61909;-75
2022/09/05 10:11:38;;;;;;;;;2.00;2.00;;;;;;;;5078930;28;61906;-75
2022/09/05 10:14:20;;;;;;;;;2.67;1.67;;;;;;;;5063001;28;61898;-75
2022/09/05 10:16:52;;;;;;;;;0.67;0.67;;;;;;;;5079581;28;61914;-75
2022/09/05 10:19:29;;;;;;;;;1.67;1.00;;;;;;;;5079829;28;61810;-74
2022/09/05 10:22:07;;;;;;;;;1.00;1.00;;;;;;;;5062533;28;63904;-75
2022/09/05 10:24:32;;;;;;;;;2.00;2.00;;;;;;;;5062888;28;61923;-75
2022/09/05 10:27:18;;;;;;;;;0.67;0.67;;;;;;;;5079817;28;61984;-75
2022/09/05 10:30:02;;;;;;;;;0.00;0.00;;;;;;;;5080454;28;61991;-72
2022/09/05 10:33:00;;;;;;;;;1.00;1.00;;;;;;;;5102472;27;63779;-72
2022/09/05 10:35:25;;;;;;;;;1.00;1.00;;;;;;;;5062518;28;62058;-72
2022/09/05 10:37:58;;;;;;;;;1.00;1.00;;;;;;;;5062376;28;62188;-72
2022/09/05 10:40:25;;;;;;;;;0.67;0.67;;;;;;;;5079640;28;62002;-73
2022/09/05 10:42:52;;;;;;;;;4.33;3.00;;;;;;;;5079123;28;61923;-72
2022/09/05 10:45:26;;;;;;;;;1.00;1.00;;;;;;;;5079185;28;61876;-75
2022/09/05 10:48:10;;;;;;;;;2.00;2.00;;;;;;;;5062557;28;61890;-75
2022/09/05 10:50:40;;;;;;;;;0.00;0.00;;;;;;;;5097051;27;62193;-75
2022/09/05 10:53:20;;;;;;;;;0.00;0.00;;;;;;;;5061608;28;63719;-75
2022/09/05 10:55:54;;;;;;;;;2.50;1.50;;;;;;;;5078879;28;61940;-74
2022/09/05 10:58:32;;;;;;;;;1.67;0.00;;;;;;;;5079530;28;61951;-75
2022/09/05 11:01:03;;;;;;;;;0.67;0.67;;;;;;;;5062676;28;61973;-73
2022/09/05 11:03:34;;;;;;;;;2.00;0.00;;;;;;;;5078717;28;62089;-74
2022/09/05 11:06:04;;;;;;;;;0.67;0.33;;;;;;;;5079427;28;61894;-73
2022/09/05 11:08:49;;;;;;;;;0.00;0.00;;;;;;;;5079360;28;61771;-73
2022/09/05 11:11:21;;;;;;;;;0.67;0.33;;;;;;;;5080812;28;61969;-73
2022/09/05 11:13:53;;;;;;;;;0.00;0.00;;;;;;;;5080047;28;63915;-73
2022/09/05 11:16:24;;;;;;;;;0.00;0.00;;;;;;;;5081506;27;61718;-73
2022/09/05 11:18:49;;;;;;;;;0.00;0.00;;;;;;;;5080461;28;61887;-73
2022/09/05 11:21:25;;;;;;;;;1.67;1.00;;;;;;;;5082764;28;61960;-73
2022/09/05 11:24:04;;;;;;;;;0.67;0.67;;;;;;;;5082223;28;63934;-74
2022/09/05 11:26:47;;;;;;;;;0.00;0.00;;;;;;;;5084439;27;61798;-73
2022/09/05 11:29:21;;;;;;;;;0.00;0.00;;;;;;;;5084918;27;61872;-73
2022/09/05 11:32:04;;;;;;;;;1.00;1.00;;;;;;;;5083976;27;61743;-73
2022/09/05 11:34:38;;;;;;;;;0.00;0.00;;;;;;;;5082761;28;62353;-73
2022/09/05 11:37:11;;;;;;;;;0.00;0.00;;;;;;;;5084735;27;61992;-73
2022/09/05 11:39:36;;;;;;;;;0.00;0.00;;;;;;;;5083599;28;62085;-73
2022/09/05 11:42:04;;;;;;;;;0.00;0.00;;;;;;;;5085043;28;61935;-73
2022/09/05 11:44:30;;;;;;;;;0.00;0.00;;;;;;;;5084460;28;62007;-73
2022/09/05 11:46:55;;;;;;;;;0.00;0.00;;;;;;;;5085089;27;61847;-73
2022/09/05 11:49:41;;;;;;;;;0.67;0.67;;;;;;;;5083515;28;61745;-73
2022/09/05 11:52:09;;;;;;;;;0.00;0.00;;;;;;;;5093932;27;61906;-73
2022/09/05 11:54:37;;;;;;;;;2.33;0.67;;;;;;;;5104528;27;61791;-74
2022/09/05 11:57:18;;;;;;;;;0.67;0.67;;;;;;;;5105084;27;62038;-74
2022/09/05 11:59:46;;;;;;;;;0.00;0.00;;;;;;;;5105158;27;61741;-74
2022/09/05 12:02:37;;;;;;;;;0.00;0.00;;;;;;;;5105409;27;61975;-74
2022/09/05 12:05:18;;;;;;;;;0.33;0.33;;;;;;;;5103252;27;63530;-74
2022/09/05 12:07:49;;;;;;;;;0.33;0.33;;;;;;;;5103475;27;61855;-74
2022/09/05 12:10:22;;;;;;;;;1.00;1.00;;;;;;;;5104963;27;61801;-74
2022/09/05 12:12:48;;;;;;;;;2.00;1.00;;;;;;;;5104912;27;61720;-74
2022/09/05 12:15:36;;;;;;;;;0.00;0.00;;;;;;;;5104242;27;61983;-74
2022/09/05 12:18:20;;;;;;;;;0.00;0.00;;;;;;;;5104721;27;62038;-74
2022/09/05 12:20:45;;;;;;;;;0.00;0.00;;;;;;;;5103445;27;62154;-74
2022/09/05 12:23:30;;;;;;;;;0.00;0.00;;;;;;;;5103661;27;61986;-74
2022/09/05 12:25:59;;;;;;;;;0.00;0.00;;;;;;;;5102663;27;63632;-74
2022/09/05 12:28:32;;;;;;;;;0.00;0.00;;;;;;;;5102997;27;62020;-74
2022/09/05 12:31:11;;;;;;;;;0.00;0.00;;;;;;;;5104740;27;61834;-74
2022/09/05 12:33:37;;;;;;;;;0.67;0.67;;;;;;;;5103926;27;61790;-74
2022/09/05 12:36:02;;;;;;;;;0.00;0.00;;;;;;;;5102781;27;63627;-74
2022/09/05 12:38:43;;;;;;;;;0.00;0.00;;;;;;;;5102715;27;61823;-74
2022/09/05 12:41:13;;;;;;;;;0.00;0.00;;;;;;;;5104532;27;61945;-75
2022/09/05 12:43:54;;;;;;;;;0.00;0.00;;;;;;;;5104479;27;62078;-74
2022/09/05 12:46:25;;;;;;;;;0.00;0.00;;;;;;;;5104000;27;61976;-74
2022/09/05 12:49:02;;;;;;;;;1.00;1.00;;;;;;;;5102815;27;61957;-74
2022/09/05 12:51:29;;;;;;;;;0.33;0.33;;;;;;;;5104343;27;61731;-75
2022/09/05 12:54:03;;;;;;;;;0.33;0.33;;;;;;;;5104133;27;61843;-74
2022/09/05 12:56:31;;;;;;;;;0.00;0.00;;;;;;;;5101882;27;63062;-73
2022/09/05 12:58:57;;;;;;;;;1.00;1.00;;;;;;;;5104067;27;61601;-73
2022/09/05 13:01:26;;;;;;;;;1.00;1.00;;;;;;;;5104397;27;61762;-73
2022/09/05 13:03:56;;;;;;;;;1.33;1.00;;;;;;;;5104358;27;61944;-73
2022/09/05 13:06:30;;;;;;;;;3.00;0.67;;;;;;;;5102161;27;63578;-74
2022/09/05 13:09:00;;;;;;;;;1.00;1.00;;;;;;;;5102410;27;62014;-73
2022/09/05 13:11:26;;;;;;;;;2.67;1.67;;;;;;;;5103925;27;61853;-76
2022/09/05 13:13:54;;;;;;;;;2.00;2.00;;;;;;;;5104128;27;61780;-73
2022/09/05 13:16:23;;;;;;;;;2.00;0.00;;;;;;;;5103719;27;63003;-74
2022/09/05 13:18:51;;;;;;;;;2.67;1.33;;;;;;;;5102158;27;61819;-73
2022/09/05 13:21:17;;;;;;;;;2.00;1.33;;;;;;;;5104016;27;61811;-73
2022/09/05 13:24:03;;;;;;;;;2.33;1.67;;;;;;;;5104120;27;62272;-73
2022/09/05 13:26:38;;;;;;;;;0.33;0.33;;;;;;;;5102892;27;62885;-74
2022/09/05 13:29:16;;;;;;;;;1.00;1.00;;;;;;;;5103429;27;61755;-73
2022/09/05 13:31:42;;;;;;;;;2.00;2.00;;;;;;;;5102344;27;61852;-73
2022/09/05 13:34:11;;;;;;;;;2.67;1.00;;;;;;;;5103280;27;61674;-74
2022/09/05 13:36:41;;;;;;;;;1.00;1.00;;;;;;;;5100158;27;62168;-74
2022/09/05 13:39:09;;;;;;;;;1.67;1.67;;;;;;;;5096639;27;62036;-73
2022/09/05 13:41:43;;;;;;;;;4.67;2.00;;;;;;;;5103307;27;61959;-73
2022/09/05 13:44:12;;;;;;;;;1.67;0.33;;;;;;;;5100343;27;61714;-74
2022/09/05 13:46:37;;;;;;;;;1.00;1.00;;;;;;;;5101149;27;62417;-73
2022/09/05 13:49:09;;;;;;;;;1.33;1.33;;;;;;;;5100228;27;61815;-73
2022/09/05 13:51:37;;;;;;;;;4.00;1.33;;;;;;;;5100637;27;62052;-73
2022/09/05 13:54:02;;;;;;;;;1.33;1.33;;;;;;;;5101215;27;61863;-74
2022/09/05 13:56:31;;;;;;;;;1.67;1.67;;;;;;;;5099482;27;63609;-74
2022/09/05 13:59:10;;;;;;;;;2.00;0.00;;;;;;;;5100090;27;61813;-74
2022/09/05 14:01:39;;;;;;;;;3.00;1.67;;;;;;;;5099075;27;61952;-74
2022/09/05 14:04:19;;;;;;;;;4.33;1.67;;;;;;;;5100055;27;61940;-74
2022/09/05 14:06:55;;;;;;;;;1.00;1.00;;;;;;;;5100981;27;61860;-74
2022/09/05 14:09:20;;;;;;;;;1.00;1.00;;;;;;;;5099740;27;61933;-74
2022/09/05 14:11:59;;;;;;;;;2.67;1.67;;;;;;;;5101412;27;61911;-74
2022/09/05 14:14:24;;;;;;;;;1.67;1.67;;;;;;;;5101868;27;61907;-74
2022/09/05 14:17:05;;;;;;;;;1.33;1.33;;;;;;;;5099384;27;61855;-74
2022/09/05 14:22:34;;;;;;;;;1.00;1.00;;;;;;;;5100401;27;62244;-74
2022/09/05 14:24:59;;;;;;;;;1.67;1.67;;;;;;;;5098942;27;62335;-73
2022/09/05 14:27:25;;;;;;;;;1.67;1.67;;;;;;;;5099107;27;63358;-74
2022/09/05 14:29:52;;;;;;;;;1.33;1.33;;;;;;;;5099781;27;62001;-74
2022/09/05 14:32:17;;;;;;;;;1.67;1.67;;;;;;;;5101269;27;62014;-73
2022/09/05 14:34:58;;;;;;;;;1.33;1.33;;;;;;;;5099957;27;62087;-73
2022/09/05 14:37:47;;;;;;;;;1.33;1.33;;;;;;;;5100077;27;61808;-73
2022/09/05 14:40:37;;;;;;;;;1.00;1.00;;;;;;;;5101051;27;62194;-74
2022/09/05 14:43:14;;;;;;;;;2.67;2.67;;;;;;;;5112322;27;61627;-74
2022/09/05 14:45:45;;;;;;;;;1.00;1.00;;;;;;;;5111048;27;61921;-74
2022/09/05 14:48:21;;;;;;;;;1.00;1.00;;;;;;;;5109528;27;62876;-74
2022/09/05 14:50:56;;;;;;;;;1.00;1.00;;;;;;;;5108020;27;62053;-74
2022/09/05 14:53:27;;;;;;;;;3.33;1.67;;;;;;;;5106944;27;61837;-74
2022/09/05 14:56:04;;;;;;;;;1.67;1.67;;;;;;;;5111122;27;62174;-74
2022/09/05 14:58:31;;;;;;;;;2.00;2.00;;;;;;;;5111546;27;64081;-74
2022/09/05 15:00:58;;;;;;;;;1.33;1.33;;;;;;;;5112669;27;62041;-73
2022/09/05 15:03:27;;;;;;;;;1.67;1.67;;;;;;;;5112732;27;61837;-74
2022/09/05 15:05:53;;;;;;;;;2.33;1.00;;;;;;;;5105623;27;61892;-74
2022/09/05 15:08:26;;;;;;;;;1.67;1.67;;;;;;;;5084853;27;62070;-78
2022/09/05 15:10:55;;;;;;;;;1.00;1.00;;;;;;;;5084346;28;61895;-75
2022/09/05 15:13:22;;;;;;;;;0.67;0.67;;;;;;;;5084565;28;61701;-77
2022/09/05 15:16:08;;;;;;;;;2.67;1.00;;;;;;;;5085271;27;61873;-75
2022/09/05 15:18:37;;;;;;;;;2.00;2.00;;;;;;;;5084266;28;61936;-76
2022/09/05 15:21:23;;;;;;;;;0.67;0.67;;;;;;;;5100871;27;61922;-77
2022/09/05 15:23:56;;;;;;;;;2.00;2.00;;;;;;;;5100219;27;61955;-73